Startpagina
METAR-TAF:

METAR-TAF

Vliegvelden :

Reykjavíkurflugvöllur

Reykjavik, IJsland

breedte: 64-08N, lengte: 021-54W, hoogte: 54 m

Actueel weer

Dit bericht is 11 minuten geleden gemaakt, om 21:00 UTC
Wind 10 kt uit het westzuidwesten
Temperatuur 10°C
Vochtigheid 82%
Druk 1000 hPa
Zicht 10 km of meer
Weinig wolken op 1000 ft
Gebroken wolken op 1700 ft
Geheel bewolkt op 2200 ft

METAR: BIRK 212100Z 25010KT 9999 FEW010 BKN017 OVC022 10/07 Q1000

Tijdstip: 21:11 (21:11 UTC)

Verwachting

Dit bericht is 1 uur en het 7 minuten geleden gemaakt, om 20:04 UTC
Verwachting geldig van 21 om 21 UTC tot 22 om 21 UTC
Wind 5 kt uit het zuidwesten
Zicht 10 km of meer
Verspreide wolken op 1500 ft
Gebroken wolken op 2200 ft
Geheel bewolkt op 3000 ft
Tijdelijke
van 21 om 21 UTC tot 22 om 21 UTC
Zicht: 5000 m
Geheel bewolkt op 1200 ft
lichte motregen, nevel

TAF: BIRK 212004Z 2121/2221 22005KT 9999 SCT015 BKN022 OVC030 TX11/2212Z TN09/2206Z TEMPO 2121/2221 5000 -DZ BR OVC012

Waarnemingen en weersverwachtingen van meer dan 4000 vliegvelden (METAR en TAF).

De beschikbare stations zijn de gele en rode punten op de kaart.

Ga met uw muis naar het station om de naam te zien.

Klik dan om waarnemingen en weersverwachtingen te zien.

kaart wijzigen: klik op de groene knoppen met een zwart kruis om in te zoomen, op de groene knop met een streepje om uit te zoomen of op de groene pijlen voor aangrenzende kaarten.


METAR-TAF: